Time;durP1;ratioP1;P1;durP2;ratioP2;P2;SDS_P1;SDS_P2;PMS_P1;PMS_P2;Temp;Humidity;BMP_temperature;BMP_pressure;BME280_temperature;BME280_humidity;BME280_pressure;Samples;Min_cycle;Max_cycle;Signal;HPM_P1;HPM_P2
2023/04/29 00:01:38;;;;;;;0.70;0.70;;;15.60;86.70;15.70;96099.00;;;;5081841;28;20192;-75
2023/04/29 00:04:06;;;;;;;1.67;1.00;;;15.60;86.80;15.70;96099.00;;;;5084923;28;20294;-75
2023/04/29 00:06:33;;;;;;;0.80;0.80;;;15.60;86.80;15.70;96098.00;;;;5085202;28;20206;-74
2023/04/29 00:09:00;;;;;;;0.80;0.80;;;15.60;86.50;15.60;96101.00;;;;5080285;28;20745;-74
2023/04/29 00:11:28;;;;;;;2.70;0.80;;;15.50;86.30;15.60;96098.00;;;;5085363;28;20227;-74
2023/04/29 00:13:56;;;;;;;0.70;0.70;;;15.50;86.20;15.50;96096.00;;;;5088085;28;20695;-74
2023/04/29 00:16:23;;;;;;;0.63;0.63;;;15.40;86.10;15.50;96090.00;;;;5090833;28;20286;-75
2023/04/29 00:18:50;;;;;;;1.13;0.80;;;15.40;86.60;15.40;96084.00;;;;5087998;28;20221;-74
2023/04/29 00:21:18;;;;;;;0.70;0.70;;;15.30;85.80;15.40;96087.00;;;;5087731;28;20210;-74
2023/04/29 00:23:45;;;;;;;0.83;0.73;;;15.30;85.80;15.30;96080.00;;;;5080539;28;20638;-75
2023/04/29 00:26:12;;;;;;;0.80;0.80;;;15.20;85.70;15.30;96081.00;;;;5089332;28;20282;-74
2023/04/29 00:28:40;;;;;;;0.70;0.70;;;15.20;85.70;15.20;96087.00;;;;5081910;28;20342;-74
2023/04/29 00:31:09;;;;;;;0.90;0.70;;;15.10;85.80;15.20;96077.00;;;;5084367;28;20227;-74
2023/04/29 00:33:36;;;;;;;1.13;0.70;;;15.10;85.70;15.10;96080.00;;;;5087704;28;20211;-74
2023/04/29 00:36:04;;;;;;;0.70;0.70;;;15.10;85.70;15.10;96088.00;;;;5088273;28;20682;-74
2023/04/29 00:38:31;;;;;;;0.70;0.70;;;15.00;86.10;15.10;96096.00;;;;5088650;28;20576;-74
2023/04/29 00:40:58;;;;;;;0.80;0.80;;;15.00;86.30;15.10;96088.00;;;;5084434;28;20286;-75
2023/04/29 00:43:25;;;;;;;1.17;0.93;;;15.00;86.60;15.10;96086.00;;;;5088695;28;20219;-74
2023/04/29 00:45:53;;;;;;;1.00;0.80;;;14.90;86.90;15.10;96084.00;;;;5086853;28;20199;-74
2023/04/29 00:48:22;;;;;;;0.90;0.90;;;14.90;87.00;15.10;96083.00;;;;5087196;28;20215;-74
2023/04/29 00:50:50;;;;;;;0.80;0.80;;;14.90;87.10;15.10;96082.00;;;;5086001;28;20193;-74
2023/04/29 00:53:17;;;;;;;1.33;1.07;;;14.90;87.40;15.10;96087.00;;;;5089289;28;20211;-74
2023/04/29 00:55:46;;;;;;;0.90;0.90;;;14.90;87.50;15.10;96085.00;;;;5091164;28;20744;-75
2023/04/29 00:58:14;;;;;;;0.80;0.80;;;14.90;88.20;15.10;96080.00;;;;5085410;28;20209;-74
2023/04/29 01:00:42;;;;;;;0.60;0.60;;;14.90;87.40;15.10;96076.00;;;;5085260;28;20195;-76
2023/04/29 01:03:10;;;;;;;0.70;0.70;;;14.90;87.40;15.10;96071.00;;;;5090602;28;20210;-75
2023/04/29 01:05:39;;;;;;;0.70;0.70;;;14.90;87.50;15.00;96074.00;;;;5081466;28;20223;-74
2023/04/29 01:08:28;;;;;;;0.93;0.70;;;14.90;87.40;15.00;96077.00;;;;5092092;28;20305;-74
2023/04/29 01:11:08;;;;;;;0.40;0.40;;;14.90;88.10;15.00;96082.00;;;;5094199;28;20274;-74
2023/04/29 01:13:49;;;;;;;1.03;0.30;;;14.90;87.60;15.00;96080.00;;;;5093335;28;20210;-74
2023/04/29 01:16:28;;;;;;;0.30;0.30;;;14.90;87.60;15.10;96081.00;;;;5093365;28;20192;-74
2023/04/29 01:18:58;;;;;;;0.20;0.20;;;14.90;87.70;15.10;96080.00;;;;5089784;28;20199;-74
2023/04/29 01:21:30;;;;;;;0.20;0.20;;;14.90;87.80;15.10;96076.00;;;;5093761;28;20191;-74
2023/04/29 01:23:59;;;;;;;0.20;0.20;;;14.90;87.80;15.10;96077.00;;;;5089430;28;20636;-74
2023/04/29 01:26:29;;;;;;;0.40;0.20;;;14.90;87.80;15.10;96072.00;;;;5093964;28;20270;-74
2023/04/29 01:29:18;;;;;;;0.40;0.40;;;14.90;87.80;15.10;96075.00;;;;5089804;28;20299;-74
2023/04/29 01:31:58;;;;;;;0.33;0.33;;;15.00;87.80;15.10;96075.00;;;;5080318;28;20195;-74
2023/04/29 01:34:36;;;;;;;0.63;0.20;;;15.00;87.80;15.10;96070.00;;;;5091961;28;20298;-74
2023/04/29 01:37:14;;;;;;;0.40;0.40;;;15.00;87.80;15.10;96076.00;;;;5081525;28;20668;-75
2023/04/29 01:39:58;;;;;;;0.23;0.23;;;15.00;87.90;15.10;96076.00;;;;5090409;28;20187;-75
2023/04/29 01:42:36;;;;;;;0.30;0.30;;;15.00;87.90;15.10;96072.00;;;;5092032;28;20299;-75
2023/04/29 01:45:10;;;;;;;0.30;0.30;;;15.00;88.00;15.10;96074.00;;;;5088412;28;20219;-75
2023/04/29 01:47:39;;;;;;;0.30;0.30;;;15.00;88.10;15.20;96075.00;;;;5089640;28;20635;-74
2023/04/29 01:50:07;;;;;;;0.40;0.40;;;15.00;88.20;15.20;96076.00;;;;5084012;28;20664;-74
2023/04/29 01:52:35;;;;;;;0.30;0.30;;;15.00;88.30;15.20;96076.00;;;;5094730;28;20193;-74
2023/04/29 01:55:05;;;;;;;0.50;0.17;;;15.00;88.40;15.20;96077.00;;;;5083798;28;20196;-75
2023/04/29 01:57:33;;;;;;;0.43;0.40;;;15.10;88.50;15.20;96077.00;;;;5086253;28;20647;-74
2023/04/29 02:00:00;;;;;;;0.43;0.27;;;15.10;88.50;15.30;96078.00;;;;5092664;28;20543;-74
2023/04/29 02:02:28;;;;;;;0.40;0.20;;;15.10;88.50;15.30;96077.00;;;;5086879;28;20713;-74
2023/04/29 02:04:55;;;;;;;0.50;0.50;;;15.10;88.50;15.30;96073.00;;;;5080593;28;20287;-74
2023/04/29 02:07:22;;;;;;;0.40;0.30;;;15.10;88.40;15.30;96074.00;;;;5089042;28;20230;-74
2023/04/29 02:09:50;;;;;;;0.27;0.20;;;15.10;88.30;15.30;96065.00;;;;5089933;28;20287;-74
2023/04/29 02:12:19;;;;;;;0.33;0.30;;;15.10;88.20;15.30;96070.00;;;;5087580;28;20578;-74
2023/04/29 02:14:48;;;;;;;0.40;0.40;;;15.20;88.20;15.30;96073.00;;;;5087445;28;20196;-74
2023/04/29 02:17:15;;;;;;;0.30;0.30;;;15.20;88.20;15.30;96073.00;;;;5081376;28;20203;-74
2023/04/29 02:19:42;;;;;;;0.37;0.37;;;15.20;88.10;15.30;96075.00;;;;5093017;28;20195;-74
2023/04/29 02:22:11;;;;;;;0.30;0.30;;;15.20;88.80;15.30;96074.00;;;;5089608;28;20548;-74
2023/04/29 02:24:38;;;;;;;0.50;0.30;;;15.20;87.90;15.30;96083.00;;;;5092956;28;20214;-75
2023/04/29 02:27:05;;;;;;;0.60;0.40;;;15.20;87.90;15.30;96078.00;;;;5090871;28;20294;-74
2023/04/29 02:29:34;;;;;;;0.30;0.30;;;15.20;88.40;15.30;96074.00;;;;5089134;28;20223;-74
2023/04/29 02:32:01;;;;;;;0.33;0.33;;;15.20;87.70;15.30;96069.00;;;;5085154;28;20205;-74
2023/04/29 02:34:30;;;;;;;2.10;0.70;;;15.20;87.60;15.30;96077.00;;;;5084496;28;20226;-74
2023/04/29 02:36:58;;;;;;;0.30;0.30;;;15.20;88.40;15.30;96078.00;;;;5091111;28;20199;-74
2023/04/29 02:39:25;;;;;;;0.83;0.50;;;15.20;87.60;15.30;96072.00;;;;5077916;28;20682;-75
2023/04/29 02:41:55;;;;;;;1.37;0.30;;;15.20;87.60;15.30;96074.00;;;;5090180;28;20191;-74
2023/04/29 02:44:23;;;;;;;0.40;0.40;;;15.20;87.50;15.20;96073.00;;;;5091938;28;20211;-74
2023/04/29 02:46:51;;;;;;;0.97;0.40;;;15.10;87.40;15.20;96070.00;;;;5077567;28;20295;-74
2023/04/29 02:49:18;;;;;;;0.97;0.40;;;15.10;87.30;15.20;96072.00;;;;5084603;28;20223;-74
2023/04/29 02:51:48;;;;;;;0.50;0.50;;;15.10;87.20;15.20;96074.00;;;;5091786;28;20191;-75
2023/04/29 02:54:16;;;;;;;0.40;0.40;;;15.10;87.00;15.20;96078.00;;;;5087121;28;20330;-74
2023/04/29 02:56:44;;;;;;;0.77;0.40;;;15.10;86.90;15.20;96074.00;;;;5088979;28;20694;-74
2023/04/29 02:59:11;;;;;;;0.70;0.70;;;15.10;86.80;15.20;96076.00;;;;5087805;28;20223;-74
2023/04/29 03:01:38;;;;;;;0.50;0.50;;;15.10;87.50;15.10;96070.00;;;;5089970;28;20191;-74
2023/04/29 03:04:07;;;;;;;0.57;0.57;;;15.00;86.80;15.10;96074.00;;;;5081653;28;20715;-74
2023/04/29 03:06:34;;;;;;;0.43;0.43;;;15.00;86.80;15.10;96078.00;;;;5082550;28;20196;-74
2023/04/29 03:09:01;;;;;;;0.40;0.30;;;15.00;86.80;15.10;96080.00;;;;5084529;28;20243;-74
2023/04/29 03:11:28;;;;;;;2.07;0.40;;;15.00;87.00;15.00;96076.00;;;;5092907;28;20648;-74
2023/04/29 03:13:56;;;;;;;0.47;0.47;;;14.90;87.00;15.00;96078.00;;;;5092431;28;20219;-74
2023/04/29 03:16:24;;;;;;;0.50;0.50;;;14.90;87.10;15.00;96084.00;;;;5088953;28;20613;-74
2023/04/29 03:18:51;;;;;;;1.63;0.60;;;14.90;87.30;15.00;96078.00;;;;5084876;28;20287;-74
2023/04/29 03:21:20;;;;;;;2.10;0.83;;;14.90;87.30;15.00;96080.00;;;;5089031;28;20282;-74
2023/04/29 03:23:50;;;;;;;0.73;0.60;;;14.90;87.20;15.00;96073.00;;;;5084361;28;20216;-74
2023/04/29 03:26:17;;;;;;;0.60;0.60;;;14.90;87.90;15.00;96074.00;;;;5087757;28;20664;-74
2023/04/29 03:28:44;;;;;;;0.60;0.60;;;14.90;87.30;15.00;96074.00;;;;5087729;28;20233;-74
2023/04/29 03:31:14;;;;;;;0.50;0.50;;;14.90;87.20;15.00;96078.00;;;;5082548;28;20192;-74
2023/04/29 03:33:42;;;;;;;0.70;0.70;;;14.90;87.20;15.00;96073.00;;;;5082987;28;20680;-75
2023/04/29 03:36:09;;;;;;;1.27;1.17;;;14.90;87.30;15.00;96075.00;;;;5086903;28;20195;-74
2023/04/29 03:38:38;;;;;;;1.40;1.30;;;14.90;87.30;15.00;96070.00;;;;5088424;28;20301;-74
2023/04/29 03:41:06;;;;;;;1.53;1.10;;;14.90;87.30;15.00;96070.00;;;;5078926;28;20691;-74
2023/04/29 03:43:33;;;;;;;1.63;0.90;;;14.90;87.30;15.00;96072.00;;;;5079752;28;20212;-74
2023/04/29 03:46:01;;;;;;;1.00;0.90;;;14.90;87.20;14.90;96067.00;;;;5084705;28;20678;-74
2023/04/29 03:48:28;;;;;;;0.90;0.90;;;14.90;87.00;14.90;96074.00;;;;5092224;28;20238;-74
2023/04/29 03:50:55;;;;;;;1.27;0.63;;;14.80;86.90;14.90;96073.00;;;;5088596;28;20196;-74
2023/04/29 03:53:23;;;;;;;0.60;0.60;;;14.90;87.00;14.90;96073.00;;;;5090812;28;20709;-74
2023/04/29 03:55:51;;;;;;;0.70;0.70;;;14.80;86.90;14.90;96071.00;;;;5077319;28;20278;-74
2023/04/29 03:58:19;;;;;;;0.70;0.70;;;14.80;87.00;14.90;96079.00;;;;5080387;28;20208;-74
2023/04/29 04:00:46;;;;;;;0.70;0.70;;;14.80;87.00;14.90;96075.00;;;;5085263;28;20574;-74
2023/04/29 04:03:13;;;;;;;1.00;0.80;;;14.80;87.10;14.90;96072.00;;;;5090726;28;20215;-74
2023/04/29 04:05:40;;;;;;;0.70;0.70;;;14.80;87.00;14.90;96082.00;;;;5085126;28;20199;-74
2023/04/29 04:08:08;;;;;;;0.70;0.70;;;14.80;87.20;14.90;96076.00;;;;5091567;28;20202;-74
2023/04/29 04:10:36;;;;;;;0.90;0.77;;;14.80;87.30;14.90;96083.00;;;;5081304;28;20192;-74
2023/04/29 04:13:05;;;;;;;0.97;0.90;;;14.80;87.20;14.90;96085.00;;;;5088040;28;20218;-74
2023/04/29 04:15:32;;;;;;;1.00;1.00;;;14.80;87.30;14.90;96084.00;;;;5077628;28;20555;-74
2023/04/29 04:17:59;;;;;;;0.70;0.70;;;14.80;87.40;15.00;96086.00;;;;5087996;28;20276;-74
2023/04/29 04:20:26;;;;;;;0.80;0.80;;;14.80;87.50;15.00;96084.00;;;;5079240;28;20253;-74
2023/04/29 04:22:54;;;;;;;0.60;0.60;;;14.80;87.50;15.00;96094.00;;;;5079915;28;20232;-74
2023/04/29 04:25:21;;;;;;;0.83;0.83;;;14.80;87.60;15.00;96094.00;;;;5088165;28;20208;-74
2023/04/29 04:27:48;;;;;;;0.70;0.70;;;14.90;87.70;15.00;96099.00;;;;5089363;28;20211;-73
2023/04/29 04:30:18;;;;;;;1.00;0.90;;;14.90;87.70;15.00;96096.00;;;;5072783;28;20219;-74
2023/04/29 04:32:45;;;;;;;1.07;1.00;;;14.90;87.70;15.10;96095.00;;;;5087334;28;20342;-73
2023/04/29 04:35:13;;;;;;;1.13;1.07;;;14.90;87.60;15.10;96097.00;;;;5076956;28;20214;-74
2023/04/29 04:37:41;;;;;;;1.10;1.00;;;14.90;87.70;15.10;96105.00;;;;5091196;28;20214;-73
2023/04/29 04:40:10;;;;;;;1.00;0.83;;;14.90;87.80;15.10;96108.00;;;;5081519;28;20201;-74
2023/04/29 04:42:38;;;;;;;1.07;1.07;;;14.90;87.90;15.10;96108.00;;;;5092135;28;20668;-73
2023/04/29 04:45:08;;;;;;;1.53;1.00;;;15.00;88.10;15.10;96106.00;;;;5090366;28;20663;-74
2023/04/29 04:47:37;;;;;;;0.90;0.90;;;15.00;88.20;15.20;96107.00;;;;5082189;28;20676;-74
2023/04/29 04:50:05;;;;;;;0.97;0.97;;;15.00;88.20;15.20;96114.00;;;;5091802;28;20222;-74
2023/04/29 04:52:33;;;;;;;0.80;0.80;;;15.00;88.30;15.20;96107.00;;;;5089042;28;20195;-74
2023/04/29 04:55:00;;;;;;;1.03;1.03;;;15.10;88.50;15.30;96110.00;;;;5087948;28;20226;-74
2023/04/29 04:57:28;;;;;;;1.10;1.10;;;15.10;88.70;15.30;96121.00;;;;5090090;28;20278;-73
2023/04/29 04:59:55;;;;;;;1.10;1.00;;;15.10;88.90;15.40;96115.00;;;;5089725;28;20199;-74
2023/04/29 05:02:22;;;;;;;1.23;1.10;;;15.20;89.00;15.40;96108.00;;;;5088207;28;20290;-73
2023/04/29 05:04:50;;;;;;;1.30;1.20;;;15.20;89.00;15.50;96107.00;;;;5081821;28;20226;-74
2023/04/29 05:07:18;;;;;;;1.00;1.00;;;15.30;89.00;15.50;96115.00;;;;5088385;28;20338;-74
2023/04/29 05:09:45;;;;;;;1.20;1.13;;;15.30;89.00;15.50;96117.00;;;;5090172;28;20298;-74
2023/04/29 05:12:12;;;;;;;1.30;1.10;;;15.30;89.70;15.60;96116.00;;;;5084329;28;20897;-74
2023/04/29 05:14:39;;;;;;;2.37;1.00;;;15.40;89.10;15.60;96120.00;;;;5087943;28;20716;-74
2023/04/29 05:17:08;;;;;;;1.43;1.10;;;15.40;89.10;15.70;96118.00;;;;5080572;28;20843;-74
2023/04/29 05:19:35;;;;;;;1.30;1.20;;;15.40;89.10;15.70;96128.00;;;;5082326;28;20277;-74
2023/04/29 05:22:04;;;;;;;1.50;1.40;;;15.50;89.20;15.70;96136.00;;;;5086201;28;20196;-74
2023/04/29 05:24:31;;;;;;;1.07;1.07;;;15.50;89.20;15.80;96128.00;;;;5086776;28;20211;-74
2023/04/29 05:26:58;;;;;;;1.10;1.10;;;15.60;89.30;15.80;96130.00;;;;5067500;28;20695;-74
2023/04/29 05:29:26;;;;;;;1.60;1.50;;;15.60;89.30;15.90;96138.00;;;;5083211;28;20227;-76
2023/04/29 05:31:54;;;;;;;1.57;1.33;;;15.60;89.30;15.90;96142.00;;;;5091374;28;20209;-76
2023/04/29 05:34:21;;;;;;;1.47;1.10;;;15.70;89.30;16.00;96144.00;;;;5087177;28;20229;-76
2023/04/29 05:36:48;;;;;;;1.40;1.30;;;15.70;89.30;16.00;96152.00;;;;5081934;28;20653;-75
2023/04/29 05:39:17;;;;;;;1.00;1.00;;;15.80;89.20;16.10;96144.00;;;;5082256;28;20195;-75
2023/04/29 05:41:45;;;;;;;1.53;1.43;;;15.80;89.20;16.10;96150.00;;;;5086210;28;20218;-75
2023/04/29 05:44:12;;;;;;;1.67;1.57;;;15.80;89.30;16.10;96150.00;;;;5081604;28;20767;-75
2023/04/29 05:46:39;;;;;;;1.50;1.40;;;15.90;89.30;16.10;96157.00;;;;5081733;28;20196;-75
2023/04/29 05:49:07;;;;;;;1.40;1.30;;;15.90;89.30;16.20;96153.00;;;;5083638;28;20642;-76
2023/04/29 05:51:35;;;;;;;1.37;1.30;;;15.90;89.90;16.20;96166.00;;;;5080673;28;20668;-75
2023/04/29 05:54:02;;;;;;;1.17;1.17;;;16.00;89.20;16.20;96158.00;;;;5083046;28;20262;-76
2023/04/29 05:56:31;;;;;;;1.80;1.53;;;16.00;89.20;16.30;96168.00;;;;5090850;28;20195;-75
2023/04/29 05:58:59;;;;;;;1.60;1.50;;;16.10;89.20;16.30;96165.00;;;;5083392;28;20196;-75
2023/04/29 06:01:26;;;;;;;1.50;1.40;;;16.10;89.20;16.30;96168.00;;;;5088147;28;20201;-75
2023/04/29 06:03:53;;;;;;;1.40;1.30;;;16.10;89.20;16.40;96162.00;;;;5094904;28;20245;-75
2023/04/29 06:06:21;;;;;;;1.73;1.53;;;16.20;89.40;16.40;96170.00;;;;5087749;28;20201;-75
2023/04/29 06:08:48;;;;;;;1.67;1.57;;;16.20;90.00;16.50;96178.00;;;;5079689;28;20615;-75
2023/04/29 06:11:15;;;;;;;1.70;1.60;;;16.20;89.60;16.60;96177.00;;;;5085887;28;20200;-76
2023/04/29 06:13:44;;;;;;;1.50;1.40;;;16.30;89.70;16.60;96180.00;;;;5091881;28;20215;-75
2023/04/29 06:16:12;;;;;;;1.73;1.63;;;16.30;90.30;16.70;96182.00;;;;5085723;28;20200;-76
2023/04/29 06:18:40;;;;;;;1.60;1.50;;;16.40;90.00;16.80;96183.00;;;;5084651;28;20767;-76
2023/04/29 06:21:07;;;;;;;1.87;1.77;;;16.50;90.10;16.80;96181.00;;;;5080649;28;20200;-76
2023/04/29 06:23:34;;;;;;;2.57;1.83;;;16.50;90.10;16.90;96191.00;;;;5077857;28;20215;-76
2023/04/29 06:26:01;;;;;;;2.80;2.00;;;16.60;90.20;17.00;96196.00;;;;5087318;28;20728;-76
2023/04/29 06:28:28;;;;;;;1.90;1.80;;;16.60;90.20;17.10;96200.00;;;;5086125;28;20198;-76
2023/04/29 06:30:57;;;;;;;1.87;1.77;;;16.70;90.20;17.20;96207.00;;;;5091278;28;20365;-76
2023/04/29 06:33:25;;;;;;;2.17;2.07;;;16.80;90.30;17.30;96207.00;;;;5064716;28;20599;-76
2023/04/29 06:35:53;;;;;;;3.07;2.73;;;16.90;90.40;17.50;96212.00;;;;5078697;28;20252;-76
2023/04/29 06:38:20;;;;;;;2.30;2.20;;;17.00;90.40;17.50;96210.00;;;;5092951;28;20199;-76
2023/04/29 06:40:47;;;;;;;2.50;2.30;;;17.10;90.40;17.60;96208.00;;;;5081987;28;20568;-76
2023/04/29 06:43:14;;;;;;;2.67;2.57;;;17.10;90.40;17.70;96219.00;;;;5083859;28;20252;-77
2023/04/29 06:45:45;;;;;;;2.83;2.63;;;17.20;90.40;17.90;96215.00;;;;5082856;28;20656;-76
2023/04/29 06:48:13;;;;;;;2.77;2.57;;;17.30;90.40;18.00;96219.00;;;;5090685;28;20218;-76
2023/04/29 06:50:50;;;;;;;2.80;2.60;;;17.40;90.40;18.10;96218.00;;;;5089084;28;20237;-77
2023/04/29 06:53:17;;;;;;;2.53;2.43;;;17.50;90.20;18.20;96219.00;;;;5091762;28;20226;-76
2023/04/29 06:55:45;;;;;;;3.00;2.80;;;17.60;90.20;18.20;96217.00;;;;5085962;28;20199;-77
2023/04/29 06:58:12;;;;;;;3.13;2.73;;;17.70;90.10;18.30;96221.00;;;;5084795;28;20211;-77
2023/04/29 07:00:40;;;;;;;2.43;2.33;;;17.70;90.10;18.30;96218.00;;;;5080916;28;20226;-77
2023/04/29 07:03:08;;;;;;;2.37;2.17;;;17.80;90.10;18.40;96217.00;;;;5078271;28;20242;-77
2023/04/29 07:05:38;;;;;;;2.57;2.37;;;17.90;90.10;18.50;96219.00;;;;5089308;28;20256;-77
2023/04/29 07:08:05;;;;;;;2.50;2.30;;;18.00;90.20;18.70;96229.00;;;;5091845;28;20215;-77
2023/04/29 07:10:33;;;;;;;2.87;2.70;;;18.10;90.10;18.80;96237.00;;;;5086107;28;20219;-76
2023/04/29 07:13:00;;;;;;;2.43;2.33;;;18.20;90.10;18.80;96242.00;;;;5079122;28;20218;-76
2023/04/29 07:15:28;;;;;;;2.93;2.73;;;18.30;89.80;18.90;96240.00;;;;5081632;28;20729;-76
2023/04/29 07:17:56;;;;;;;2.80;2.67;;;18.30;89.60;18.90;96245.00;;;;5083441;28;20188;-76
2023/04/29 07:20:23;;;;;;;2.80;2.60;;;18.40;89.20;19.00;96239.00;;;;5081788;28;20204;-77
2023/04/29 07:22:52;;;;;;;3.10;2.90;;;18.40;89.00;19.00;96236.00;;;;5087057;28;20567;-76
2023/04/29 07:25:19;;;;;;;2.83;2.63;;;18.50;88.50;19.10;96239.00;;;;5089992;28;20191;-76
2023/04/29 07:27:46;;;;;;;2.97;2.77;;;18.50;88.50;19.20;96232.00;;;;5090278;28;20558;-76
2023/04/29 07:30:13;;;;;;;3.10;2.90;;;18.60;89.30;19.20;96240.00;;;;5089592;28;20234;-77
2023/04/29 07:32:40;;;;;;;3.80;3.50;;;18.60;88.30;19.30;96241.00;;;;5078155;28;20215;-76
2023/04/29 07:35:09;;;;;;;2.90;2.70;;;18.70;88.30;19.40;96234.00;;;;5085352;28;20283;-76
2023/04/29 07:37:36;;;;;;;3.03;2.83;;;18.80;88.40;19.50;96236.00;;;;5082844;28;20291;-77
2023/04/29 07:40:06;;;;;;;3.10;2.90;;;18.90;88.80;19.70;96245.00;;;;5081275;28;20680;-76
2023/04/29 07:42:33;;;;;;;2.90;2.70;;;19.00;88.60;19.80;96248.00;;;;5086074;28;20210;-76
2023/04/29 07:45:00;;;;;;;2.87;2.53;;;19.00;88.00;19.80;96243.00;;;;5091770;28;20214;-76
2023/04/29 07:47:28;;;;;;;2.70;2.60;;;19.20;87.90;19.90;96247.00;;;;5084699;28;20199;-75
2023/04/29 07:49:56;;;;;;;2.70;2.50;;;19.20;88.00;20.00;96249.00;;;;5077489;28;20223;-76
2023/04/29 07:52:23;;;;;;;2.80;2.60;;;19.30;87.90;20.10;96250.00;;;;5084169;28;20207;-75
2023/04/29 07:54:50;;;;;;;2.70;2.60;;;19.40;87.40;20.10;96253.00;;;;5087937;28;20192;-76
2023/04/29 07:57:19;;;;;;;2.70;2.50;;;19.50;87.10;20.20;96256.00;;;;5089316;28;20198;-76
2023/04/29 07:59:46;;;;;;;2.73;2.53;;;19.50;86.90;20.30;96263.00;;;;5087226;28;20276;-76
2023/04/29 08:02:15;;;;;;;2.60;2.40;;;19.60;87.00;20.40;96261.00;;;;5089706;28;20199;-76
2023/04/29 08:04:42;;;;;;;2.80;2.10;;;19.70;86.80;20.40;96252.00;;;;5090258;28;20625;-76
2023/04/29 08:07:10;;;;;;;2.17;2.07;;;19.80;86.40;20.40;96252.00;;;;5084604;28;20554;-75
2023/04/29 08:09:37;;;;;;;2.40;2.30;;;19.80;85.70;20.50;96253.00;;;;5088555;28;20219;-76
2023/04/29 08:12:05;;;;;;;2.10;2.00;;;19.90;85.50;20.50;96261.00;;;;5088646;28;20218;-76
2023/04/29 08:14:33;;;;;;;2.13;2.00;;;19.90;85.70;20.70;96261.00;;;;5089946;28;20226;-76
2023/04/29 08:17:00;;;;;;;2.13;2.03;;;20.00;85.70;20.80;96260.00;;;;5090228;28;20217;-77
2023/04/29 08:19:27;;;;;;;2.67;2.00;;;20.10;85.50;20.80;96262.00;;;;5080239;28;20196;-76
2023/04/29 08:21:55;;;;;;;2.20;2.10;;;20.10;85.10;20.80;96265.00;;;;5090951;28;20343;-77
2023/04/29 08:24:22;;;;;;;2.07;1.97;;;20.10;84.80;20.90;96259.00;;;;5091521;28;20211;-77
2023/04/29 08:26:50;;;;;;;1.90;1.80;;;20.20;85.00;21.00;96256.00;;;;5084520;28;20674;-76
2023/04/29 08:29:21;;;;;;;2.10;2.00;;;20.20;84.70;21.10;96257.00;;;;5091308;28;20191;-76
2023/04/29 08:31:50;;;;;;;1.77;1.63;;;20.30;85.20;21.40;96260.00;;;;5092169;28;20636;-76
2023/04/29 08:34:17;;;;;;;1.90;1.70;;;20.40;84.90;21.60;96258.00;;;;5088835;28;20251;-76
2023/04/29 08:36:45;;;;;;;1.77;1.67;;;20.60;85.50;21.80;96262.00;;;;5088361;28;20536;-76
2023/04/29 08:39:12;;;;;;;1.70;1.60;;;20.70;85.60;21.90;96254.00;;;;5084321;28;20198;-76
2023/04/29 08:41:39;;;;;;;1.67;1.43;;;20.80;85.00;22.00;96259.00;;;;5077212;28;20206;-76
2023/04/29 08:44:07;;;;;;;1.57;1.47;;;20.90;84.30;22.00;96260.00;;;;5088380;28;20216;-75
2023/04/29 08:46:34;;;;;;;1.43;1.07;;;21.00;83.20;22.00;96258.00;;;;5083227;28;20233;-77
2023/04/29 08:49:04;;;;;;;1.10;1.10;;;21.10;82.30;22.10;96261.00;;;;5088328;28;20207;-77
2023/04/29 08:51:33;;;;;;;1.37;1.27;;;21.20;82.20;22.20;96261.00;;;;5088633;28;20252;-77
2023/04/29 08:54:00;;;;;;;1.80;1.10;;;21.30;82.50;22.30;96268.00;;;;5088031;28;20297;-77
2023/04/29 08:56:31;;;;;;;1.10;1.10;;;21.30;81.80;22.40;96263.00;;;;5086661;28;20363;-76
2023/04/29 08:59:01;;;;;;;0.90;0.90;;;21.40;82.20;22.50;96262.00;;;;5081166;28;20221;-76
2023/04/29 09:01:29;;;;;;;1.83;1.00;;;21.50;81.30;22.70;96272.00;;;;5082160;28;20198;-76
2023/04/29 09:04:12;;;;;;;1.00;1.00;;;21.70;81.50;22.90;96271.00;;;;5083873;28;20226;-76
2023/04/29 09:06:39;;;;;;;0.90;0.90;;;21.80;80.40;23.00;96265.00;;;;5085782;28;20195;-77
2023/04/29 09:09:07;;;;;;;0.80;0.80;;;21.90;80.90;23.30;96267.00;;;;5084170;28;20191;-77
2023/04/29 09:11:39;;;;;;;0.90;0.90;;;22.10;81.50;23.50;96268.00;;;;5081643;28;20269;-78
2023/04/29 09:14:07;;;;;;;2.60;0.90;;;22.20;80.30;23.70;96273.00;;;;5087893;28;20219;-77
2023/04/29 09:16:37;;;;;;;0.70;0.70;;;22.40;80.40;23.70;96274.00;;;;5085112;28;20196;-77
2023/04/29 09:19:04;;;;;;;2.13;1.00;;;22.50;78.50;23.60;96275.00;;;;5085223;28;20200;-77
2023/04/29 09:21:33;;;;;;;0.70;0.70;;;22.60;78.00;23.50;96278.00;;;;5086056;28;20298;-77
2023/04/29 09:24:02;;;;;;;0.70;0.67;;;22.60;75.90;23.30;96275.00;;;;5071464;28;20222;-77
2023/04/29 09:26:43;;;;;;;0.70;0.70;;;22.60;76.30;23.40;96263.00;;;;5094743;28;20621;-77
2023/04/29 09:29:14;;;;;;;0.70;0.70;;;22.60;74.90;23.60;96268.00;;;;5091759;28;20223;-78
2023/04/29 09:31:44;;;;;;;0.70;0.70;;;22.70;76.80;23.80;96263.00;;;;5091478;28;20663;-78
2023/04/29 09:34:13;;;;;;;0.73;0.70;;;22.80;77.30;24.10;96268.00;;;;5093431;28;20272;-79
2023/04/29 09:36:45;;;;;;;0.80;0.80;;;22.90;77.80;24.30;96263.00;;;;5089905;28;20710;-77
2023/04/29 09:39:14;;;;;;;0.57;0.57;;;23.10;76.90;24.60;96265.00;;;;5088817;28;20758;-78
2023/04/29 09:42:01;;;;;;;0.70;0.70;;;23.30;78.70;24.90;96266.00;;;;5089714;28;20664;-78
2023/04/29 09:44:31;;;;;;;0.70;0.70;;;23.50;75.90;25.10;96270.00;;;;5087623;28;20238;-79
2023/04/29 09:47:03;;;;;;;0.60;0.60;;;23.70;78.40;25.40;96280.00;;;;5087691;28;20198;-79
2023/04/29 09:49:37;;;;;;;0.43;0.43;;;23.90;75.30;25.40;96276.00;;;;5081828;28;20608;-78
2023/04/29 09:52:08;;;;;;;0.40;0.40;;;24.10;74.20;25.20;96283.00;;;;5089447;28;20219;-79
2023/04/29 09:54:37;;;;;;;1.10;0.50;;;24.10;72.00;25.00;96281.00;;;;5081186;28;20264;-79
2023/04/29 09:57:06;;;;;;;0.87;0.53;;;24.10;71.40;24.70;96273.00;;;;5089611;28;20261;-78
2023/04/29 09:59:35;;;;;;;0.60;0.60;;;24.00;70.20;24.40;96286.00;;;;5091029;28;20737;-79
2023/04/29 10:02:08;;;;;;;0.50;0.50;;;23.90;69.50;24.20;96279.00;;;;5091638;28;20202;-79
2023/04/29 10:04:43;;;;;;;0.50;0.50;;;23.80;69.90;24.00;96277.00;;;;5088341;28;20216;-80
2023/04/29 10:07:15;;;;;;;0.80;0.80;;;23.60;69.10;24.00;96273.00;;;;5089918;28;20201;-79
2023/04/29 10:09:45;;;;;;;0.77;0.60;;;23.50;69.00;23.90;96285.00;;;;5093370;28;20191;-78
2023/04/29 10:12:17;;;;;;;1.07;0.40;;;23.40;69.60;23.80;96285.00;;;;5089981;28;20721;-79
2023/04/29 10:14:54;;;;;;;0.50;0.50;;;23.40;69.20;23.80;96279.00;;;;5085974;28;20212;-78
2023/04/29 10:17:34;;;;;;;0.90;0.57;;;23.30;70.60;24.00;96270.00;;;;5087805;28;20199;-79
2023/04/29 10:20:06;;;;;;;1.03;0.67;;;23.40;71.60;24.30;96275.00;;;;5094725;28;20271;-79
2023/04/29 10:22:46;;;;;;;0.57;0.57;;;23.50;73.50;24.40;96273.00;;;;5098868;28;20201;-79
2023/04/29 10:25:16;;;;;;;0.90;0.60;;;23.60;70.90;24.50;96284.00;;;;5081092;28;20190;-80
2023/04/29 10:27:45;;;;;;;0.93;0.90;;;23.70;72.30;24.40;96273.00;;;;5091907;28;20200;-79
2023/04/29 10:30:15;;;;;;;0.57;0.57;;;23.80;71.30;24.30;96269.00;;;;5091063;28;20228;-79
2023/04/29 10:32:45;;;;;;;1.23;0.70;;;23.80;70.50;24.30;96274.00;;;;5090158;28;20738;-79
2023/04/29 10:35:14;;;;;;;0.70;0.70;;;23.80;70.30;24.30;96271.00;;;;5094080;28;20192;-80
2023/04/29 10:37:46;;;;;;;0.40;0.40;;;23.80;69.90;24.30;96265.00;;;;5087373;28;20198;-79
2023/04/29 10:40:20;;;;;;;1.00;0.50;;;23.90;69.40;24.40;96267.00;;;;5061730;28;20626;-80
2023/04/29 10:42:50;;;;;;;0.50;0.50;;;23.90;71.10;24.40;96268.00;;;;5084122;28;20364;-80
2023/04/29 10:45:27;;;;;;;0.60;0.60;;;24.00;70.00;24.30;96268.00;;;;5092747;28;20202;-80
2023/04/29 10:48:19;;;;;;;0.50;0.50;;;24.00;67.40;24.30;96263.00;;;;5089263;28;20207;-80
2023/04/29 10:51:02;;;;;;;1.17;0.40;;;24.00;64.90;24.20;96255.00;;;;5091687;28;20297;-79
2023/04/29 10:53:31;;;;;;;1.70;0.60;;;23.90;63.80;24.00;96259.00;;;;5087312;28;20212;-80
2023/04/29 10:56:05;;;;;;;0.50;0.50;;;23.90;66.10;23.90;96256.00;;;;5089218;28;20515;-81
2023/04/29 10:58:43;;;;;;;0.50;0.50;;;23.80;66.20;23.80;96257.00;;;;5092172;28;20195;-82
2023/04/29 11:01:13;;;;;;;0.63;0.40;;;23.70;65.70;23.60;96256.00;;;;5089801;28;20664;-81
2023/04/29 11:03:58;;;;;;;0.40;0.40;;;23.60;65.90;23.50;96239.00;;;;5095914;28;20248;-81